Time;durP1;ratioP1;P1;durP2;ratioP2;P2;SDS_P1;SDS_P2;PMS_P1;PMS_P2;Temp;Humidity;BMP_temperature;BMP_pressure;BME280_temperature;BME280_humidity;BME280_pressure;Samples;Min_cycle;Max_cycle;Signal;HPM_P1;HPM_P2
2022/06/03 04:01:18;;;;;;;5.25;3.97;;;11.70;99.90;;;;;;5750530;23;19925;-75
2022/06/03 04:04:18;;;;;;;3.88;3.53;;;11.90;99.90;;;;;;5014282;28;20046;-75
2022/06/03 04:06:58;;;;;;;4.50;3.47;;;11.90;99.90;;;;;;5014231;28;20035;-75
2022/06/03 04:10:01;;;;;;;3.88;3.47;;;12.10;99.90;;;;;;5014788;28;20046;-75
2022/06/03 04:12:45;;;;;;;3.50;3.10;;;12.10;99.90;;;;;;5031170;28;20030;-75
2022/06/03 04:15:48;;;;;;;4.78;3.30;;;12.20;99.90;;;;;;5034768;28;20573;-76
2022/06/03 04:18:25;;;;;;;3.20;2.90;;;12.30;99.90;;;;;;5034278;28;20056;-75
2022/06/03 04:21:15;;;;;;;4.30;3.03;;;12.40;99.90;;;;;;5033809;28;20066;-75
2022/06/03 04:24:16;;;;;;;5.90;3.00;;;12.50;99.90;;;;;;5034106;28;20034;-75
2022/06/03 04:26:47;;;;;;;3.00;2.70;;;12.60;99.90;;;;;;5034359;28;20042;-74
2022/06/03 04:29:58;;;;;;;4.40;2.92;;;12.70;99.90;;;;;;5034288;28;20066;-74
2022/06/03 04:32:57;;;;;;;3.92;2.80;;;12.80;99.90;;;;;;5023571;28;20069;-75
2022/06/03 04:35:32;;;;;;;2.95;2.63;;;12.90;99.90;;;;;;5036068;28;20494;-75
2022/06/03 04:38:38;;;;;;;4.78;2.65;;;12.90;99.90;;;;;;5037599;28;20038;-75
2022/06/03 04:41:19;;;;;;;3.42;2.83;;;13.00;99.90;;;;;;5035533;28;20491;-75
2022/06/03 04:43:56;;;;;;;2.80;2.60;;;13.10;99.90;;;;;;5035512;28;20505;-75
2022/06/03 04:46:40;;;;;;;3.80;2.60;;;13.10;99.90;;;;;;5036941;28;20034;-75
2022/06/03 04:49:38;;;;;;;3.42;2.67;;;13.10;99.90;;;;;;5035791;28;20064;-75
2022/06/03 04:52:10;;;;;;;4.93;2.63;;;13.10;99.90;;;;;;5037023;28;20034;-75
2022/06/03 04:55:13;;;;;;;5.03;2.60;;;13.10;99.90;;;;;;5036548;28;20490;-75
2022/06/03 04:58:27;;;;;;;4.93;2.83;;;13.10;99.90;;;;;;5035419;28;20466;-75
2022/06/03 05:01:11;;;;;;;3.15;2.72;;;13.10;99.90;;;;;;5036543;28;20034;-74
2022/06/03 05:04:17;;;;;;;2.78;2.53;;;13.10;99.90;;;;;;5035086;28;20031;-74
2022/06/03 05:06:51;;;;;;;6.38;2.75;;;13.10;99.90;;;;;;5019825;28;20054;-75
2022/06/03 05:09:38;;;;;;;3.25;2.63;;;13.10;99.90;;;;;;5035109;28;20029;-75
2022/06/03 05:12:12;;;;;;;5.15;2.42;;;13.20;99.90;;;;;;5036588;28;20034;-75
2022/06/03 05:15:14;;;;;;;5.45;2.80;;;13.20;99.90;;;;;;5036380;28;20026;-75
2022/06/03 05:18:15;;;;;;;3.55;2.58;;;13.40;99.90;;;;;;5035238;28;20584;-76
2022/06/03 05:20:58;;;;;;;3.92;2.67;;;13.50;99.90;;;;;;5027416;28;20532;-75
2022/06/03 05:23:42;;;;;;;5.25;2.50;;;13.50;99.90;;;;;;5023732;28;20038;-76
2022/06/03 05:26:24;;;;;;;4.38;2.30;;;13.70;99.90;;;;;;5025569;28;20042;-75
2022/06/03 05:29:22;;;;;;;2.70;2.10;;;13.80;99.90;;;;;;5042041;28;20089;-75
2022/06/03 05:32:25;;;;;;;4.10;2.13;;;14.00;99.90;;;;;;5050872;28;20062;-75
2022/06/03 05:35:15;;;;;;;2.20;2.00;;;14.20;99.90;;;;;;5055727;28;20036;-76
2022/06/03 05:37:51;;;;;;;4.38;2.30;;;14.30;99.90;;;;;;5055658;28;20037;-75
2022/06/03 05:40:50;;;;;;;3.22;2.38;;;14.50;99.00;;;;;;5054616;28;20100;-76
2022/06/03 05:43:17;;;;;;;3.42;2.08;;;14.60;98.90;;;;;;5055764;28;20172;-76
2022/06/03 05:46:01;;;;;;;5.97;2.53;;;14.80;99.20;;;;;;5055452;28;20033;-76
2022/06/03 05:49:00;;;;;;;6.50;2.47;;;14.90;98.70;;;;;;5034856;28;20042;-76
2022/06/03 05:51:52;;;;;;;4.28;2.33;;;15.00;99.00;;;;;;5016036;28;20038;-76
2022/06/03 05:54:39;;;;;;;5.63;2.80;;;15.10;99.20;;;;;;5016329;28;20031;-76
2022/06/03 05:57:14;;;;;;;3.20;2.60;;;15.20;98.90;;;;;;5015991;28;20038;-76
2022/06/03 05:59:50;;;;;;;4.35;2.35;;;15.30;98.50;;;;;;5016513;28;20035;-76
2022/06/03 06:02:38;;;;;;;2.70;2.50;;;15.30;98.70;;;;;;5016088;28;20045;-75
2022/06/03 06:05:21;;;;;;;3.67;2.70;;;15.40;98.30;;;;;;5016708;28;20034;-75
2022/06/03 06:08:06;;;;;;;3.75;2.50;;;15.50;98.10;;;;;;5016563;28;20030;-75
2022/06/03 06:11:12;;;;;;;4.10;2.58;;;15.60;98.30;;;;;;5016319;28;20097;-75
2022/06/03 06:13:57;;;;;;;3.42;2.55;;;15.80;98.00;;;;;;5016178;28;20121;-75
2022/06/03 06:16:35;;;;;;;5.53;2.67;;;16.00;98.30;;;;;;5016236;28;20041;-76
2022/06/03 06:19:07;;;;;;;3.97;2.67;;;16.10;97.00;;;;;;5016294;28;20039;-75
2022/06/03 06:22:07;;;;;;;4.32;2.60;;;16.30;97.00;;;;;;5016035;28;20026;-75
2022/06/03 06:24:35;;;;;;;3.63;2.47;;;16.50;96.90;;;;;;5014226;28;20100;-75
2022/06/03 06:27:04;;;;;;;3.40;2.67;;;16.60;96.40;;;;;;5014268;28;20121;-75
2022/06/03 06:30:04;;;;;;;4.55;2.92;;;16.80;96.10;;;;;;5015898;28;20042;-74
2022/06/03 06:32:53;;;;;;;5.38;2.67;;;16.80;95.40;;;;;;5015450;28;20030;-75
2022/06/03 06:35:34;;;;;;;5.43;2.80;;;17.00;95.80;;;;;;5013981;28;20038;-75
2022/06/03 06:38:11;;;;;;;5.60;2.83;;;17.00;95.60;;;;;;5015695;28;20026;-75
2022/06/03 06:40:56;;;;;;;3.05;2.40;;;17.20;96.20;;;;;;5015525;28;20049;-75
2022/06/03 06:43:27;;;;;;;3.78;2.30;;;17.40;96.10;;;;;;5013878;28;20026;-76
2022/06/03 06:46:05;;;;;;;4.00;2.40;;;17.70;94.90;;;;;;5015700;28;20039;-76
2022/06/03 06:48:51;;;;;;;3.53;2.65;;;17.80;95.00;;;;;;5015588;28;20460;-76
2022/06/03 06:52:01;;;;;;;2.92;2.60;;;17.90;95.10;;;;;;5015346;28;20515;-75
2022/06/03 06:54:54;;;;;;;4.43;2.63;;;17.90;95.30;;;;;;5015274;28;20062;-75
2022/06/03 06:57:28;;;;;;;3.25;2.35;;;17.90;94.50;;;;;;5014413;28;20034;-75
2022/06/03 07:00:33;;;;;;;6.13;2.60;;;18.10;95.30;;;;;;5015241;28;20043;-76
2022/06/03 07:03:18;;;;;;;6.38;2.72;;;18.30;94.90;;;;;;5015358;28;20061;-75
2022/06/03 07:05:55;;;;;;;4.80;2.70;;;18.40;94.50;;;;;;5013730;28;20030;-75
2022/06/03 07:08:23;;;;;;;4.53;2.92;;;18.60;94.60;;;;;;5015483;28;20049;-76
2022/06/03 07:11:02;;;;;;;7.60;2.90;;;18.70;94.70;;;;;;5015010;28;20531;-75
2022/06/03 07:13:59;;;;;;;4.65;2.40;;;18.80;93.50;;;;;;5015006;28;20046;-76
2022/06/03 07:19:48;;;;;;;3.25;2.80;;;18.90;94.10;;;;;;5013783;28;20046;-76
2022/06/03 07:22:18;;;;;;;5.55;2.50;;;19.00;93.70;;;;;;5015768;28;20935;-75
2022/06/03 07:24:58;;;;;;;4.75;2.83;;;19.10;93.00;;;;;;5015370;28;20034;-75
2022/06/03 07:27:50;;;;;;;6.60;2.65;;;19.40;93.10;;;;;;5015842;28;20821;-75
2022/06/03 07:30:23;;;;;;;5.22;2.60;;;19.70;92.50;;;;;;5014389;28;20061;-76
2022/06/03 07:33:06;;;;;;;3.38;2.58;;;19.60;93.00;;;;;;5014727;28;20026;-75
2022/06/03 07:35:51;;;;;;;3.72;2.80;;;19.80;92.90;;;;;;5014764;28;20113;-76
2022/06/03 07:38:20;;;;;;;4.78;2.60;;;20.10;92.70;;;;;;5014754;28;20035;-76
2022/06/03 07:41:14;;;;;;;6.35;2.60;;;20.40;91.30;;;;;;5014237;28;20049;-75
2022/06/03 07:43:50;;;;;;;6.13;2.53;;;20.60;91.40;;;;;;5024699;28;20389;-75
2022/06/03 07:46:28;;;;;;;4.88;2.90;;;21.00;91.60;;;;;;5015774;28;20034;-76
2022/06/03 07:48:53;;;;;;;5.00;2.90;;;21.30;90.60;;;;;;5029646;28;20030;-74
2022/06/03 07:51:31;;;;;;;5.20;2.72;;;21.30;90.00;;;;;;5034703;28;20392;-75
2022/06/03 07:53:56;;;;;;;5.03;2.95;;;21.50;89.60;;;;;;5034443;28;20033;-74
2022/06/03 07:56:27;;;;;;;3.70;2.60;;;21.70;89.60;;;;;;5034219;28;20030;-73
2022/06/03 07:58:57;;;;;;;8.88;2.95;;;21.90;89.90;;;;;;5034814;28;20034;-74
2022/06/03 08:01:24;;;;;;;4.25;2.78;;;21.90;89.50;;;;;;5034585;28;20045;-74
2022/06/03 08:03:49;;;;;;;4.82;3.20;;;22.10;88.60;;;;;;5033490;28;20478;-75
2022/06/03 08:06:15;;;;;;;3.45;2.60;;;22.30;88.10;;;;;;5035105;28;20029;-73
2022/06/03 08:11:32;;;;;;;6.88;2.83;;;22.60;87.20;;;;;;5038222;28;20042;-74
2022/06/03 08:14:00;;;;;;;4.35;3.05;;;23.00;86.30;;;;;;5036879;28;20587;-73
2022/06/03 08:16:32;;;;;;;5.72;3.08;;;23.10;84.80;;;;;;5039292;28;20026;-74
2022/06/03 08:19:19;;;;;;;4.72;3.38;;;23.40;84.70;;;;;;5039127;28;20038;-73
2022/06/03 08:21:52;;;;;;;4.07;2.90;;;23.60;84.10;;;;;;5037734;28;20491;-74
2022/06/03 08:24:22;;;;;;;6.63;2.70;;;23.90;84.80;;;;;;5038259;28;20042;-73
2022/06/03 08:26:59;;;;;;;5.40;3.90;;;24.30;84.20;;;;;;5036885;28;20034;-74
2022/06/03 08:29:49;;;;;;;8.32;3.08;;;24.20;81.40;;;;;;5038458;28;20037;-74
2022/06/03 08:32:27;;;;;;;10.68;3.58;;;23.90;84.10;;;;;;5038285;28;20042;-73
2022/06/03 08:34:55;;;;;;;4.45;3.05;;;23.60;84.60;;;;;;5037212;28;20521;-74
2022/06/03 08:37:31;;;;;;;8.23;3.30;;;24.20;84.20;;;;;;5037186;28;20022;-74
2022/06/03 08:40:00;;;;;;;4.32;3.13;;;25.00;81.10;;;;;;5038349;28;20534;-78
2022/06/03 08:43:06;;;;;;;3.95;3.13;;;25.10;82.00;;;;;;5037086;28;20062;-76
2022/06/03 08:45:51;;;;;;;4.18;3.05;;;25.60;80.60;;;;;;5021147;28;20054;-74
2022/06/03 08:48:21;;;;;;;5.00;3.00;;;25.70;80.40;;;;;;5035871;28;20037;-73
2022/06/03 08:51:06;;;;;;;6.82;3.13;;;25.60;79.00;;;;;;5037458;28;20029;-73
2022/06/03 08:53:34;;;;;;;5.90;2.80;;;25.10;83.70;;;;;;5036927;28;20184;-74
2022/06/03 08:56:03;;;;;;;5.72;2.75;;;25.20;80.50;;;;;;5035452;28;20034;-73
2022/06/03 08:58:58;;;;;;;6.43;3.17;;;25.50;79.60;;;;;;5035722;28;20582;-74
2022/06/03 09:01:43;;;;;;;3.35;3.00;;;25.80;78.40;;;;;;5036681;28;20046;-74
2022/06/03 09:04:20;;;;;;;4.57;3.13;;;26.00;78.80;;;;;;5036552;28;20025;-74
2022/06/03 09:06:49;;;;;;;6.40;3.30;;;26.30;78.10;;;;;;5036401;28;20034;-74
2022/06/03 09:09:25;;;;;;;3.75;3.28;;;26.50;77.10;;;;;;5036597;28;20075;-74
2022/06/03 09:12:14;;;;;;;5.55;3.30;;;27.00;77.90;;;;;;5036327;28;20034;-74
2022/06/03 09:14:45;;;;;;;5.72;3.38;;;27.10;74.60;;;;;;5036397;28;20026;-74
2022/06/03 09:17:31;;;;;;;5.75;3.15;;;26.70;76.80;;;;;;5034679;28;20038;-74
2022/06/03 09:20:01;;;;;;;6.50;3.38;;;26.70;75.40;;;;;;5034708;28;20057;-74
2022/06/03 09:22:31;;;;;;;6.47;3.40;;;26.50;75.70;;;;;;5036036;28;20025;-74
2022/06/03 09:24:59;;;;;;;7.15;3.17;;;26.50;76.70;;;;;;5036147;28;20060;-75
2022/06/03 09:27:27;;;;;;;5.03;3.47;;;26.60;78.30;;;;;;5034559;28;20065;-74
2022/06/03 09:29:57;;;;;;;5.85;3.47;;;27.00;77.10;;;;;;5036150;28;20034;-74
2022/06/03 09:32:26;;;;;;;4.72;3.10;;;26.90;75.90;;;;;;5036110;28;20037;-74
2022/06/03 09:35:11;;;;;;;4.70;3.22;;;26.90;76.20;;;;;;5036058;28;20404;-74
2022/06/03 09:37:41;;;;;;;4.85;3.08;;;27.00;76.30;;;;;;5036544;28;20550;-74
2022/06/03 09:40:14;;;;;;;8.93;3.50;;;27.10;76.60;;;;;;5035493;28;20034;-75
2022/06/03 09:42:46;;;;;;;4.60;2.67;;;27.00;75.70;;;;;;5034287;28;20034;-74
2022/06/03 09:45:16;;;;;;;6.10;3.33;;;27.40;77.40;;;;;;5036159;28;20423;-74
2022/06/03 09:47:43;;;;;;;5.50;3.40;;;27.60;74.70;;;;;;5036294;28;20092;-74
2022/06/03 09:50:17;;;;;;;7.15;3.30;;;27.30;76.50;;;;;;5032185;28;20094;-73
2022/06/03 09:52:43;;;;;;;5.25;3.42;;;27.30;75.30;;;;;;5034044;28;20037;-74
2022/06/03 09:55:33;;;;;;;3.70;3.40;;;27.20;75.30;;;;;;5035773;28;20495;-74
2022/06/03 09:58:02;;;;;;;5.35;3.20;;;27.20;74.20;;;;;;5036863;28;20168;-76
2022/06/03 10:00:46;;;;;;;4.78;3.30;;;27.20;76.50;;;;;;5034439;28;20538;-75
2022/06/03 10:03:12;;;;;;;4.38;3.10;;;27.40;75.80;;;;;;5035845;28;20026;-75
2022/06/03 10:05:39;;;;;;;3.75;3.05;;;27.80;74.50;;;;;;5033994;28;20041;-74
2022/06/03 10:08:09;;;;;;;4.53;3.00;;;28.40;74.60;;;;;;5034057;28;20030;-74
2022/06/03 10:13:22;;;;;;;4.25;3.20;;;28.80;71.90;;;;;;5023504;28;20049;-74
2022/06/03 10:15:56;;;;;;;3.83;3.10;;;28.70;71.60;;;;;;5035717;28;20116;-75
2022/06/03 10:18:42;;;;;;;3.83;3.33;;;28.90;70.50;;;;;;5036070;28;20030;-74
2022/06/03 10:21:07;;;;;;;4.70;3.03;;;29.20;74.70;;;;;;5035690;28;20042;-75
2022/06/03 10:23:36;;;;;;;4.95;3.20;;;29.80;69.80;;;;;;5035488;28;20439;-75
2022/06/03 10:26:04;;;;;;;4.57;3.10;;;30.20;71.30;;;;;;5035765;28;20117;-75
2022/06/03 10:28:39;;;;;;;3.83;3.03;;;31.00;68.20;;;;;;5035940;28;20041;-75
2022/06/03 10:31:13;;;;;;;3.55;2.85;;;31.30;66.50;;;;;;5034098;28;20034;-75
2022/06/03 10:33:39;;;;;;;3.08;2.65;;;31.10;66.10;;;;;;5035093;28;20065;-76
2022/06/03 10:36:06;;;;;;;4.05;2.92;;;30.80;67.70;;;;;;5034931;28;20072;-76
2022/06/03 10:38:34;;;;;;;4.55;3.15;;;30.50;66.70;;;;;;5035689;28;20034;-75
2022/06/03 10:41:09;;;;;;;3.25;2.80;;;30.40;67.40;;;;;;5035460;28;20033;-75
2022/06/03 10:43:36;;;;;;;3.85;2.90;;;30.40;68.90;;;;;;5035460;28;20101;-75
2022/06/03 10:46:15;;;;;;;3.63;2.72;;;30.70;67.50;;;;;;5035531;28;20104;-76
2022/06/03 10:48:41;;;;;;;3.20;2.90;;;31.60;66.40;;;;;;5035764;28;20018;-76
2022/06/03 10:51:19;;;;;;;7.10;3.05;;;32.20;64.00;;;;;;5035518;28;20527;-75
2022/06/03 11:02:34;;;;;;;4.03;2.50;;;32.10;64.70;;;;;;5035227;28;20523;-77
2022/06/03 11:05:22;;;;;;;4.03;2.80;;;32.00;63.30;;;;;;5034754;28;20041;-76
2022/06/03 11:08:06;;;;;;;3.90;2.58;;;31.70;63.00;;;;;;5035067;28;20037;-75
2022/06/03 11:10:48;;;;;;;3.15;2.70;;;31.90;63.40;;;;;;5033884;28;20034;-77
2022/06/03 11:13:38;;;;;;;6.43;2.80;;;31.90;64.20;;;;;;5033616;28;20480;-78
2022/06/03 11:16:20;;;;;;;4.43;2.70;;;32.10;63.10;;;;;;5035653;28;20041;-76
2022/06/03 11:18:46;;;;;;;3.80;2.67;;;32.10;63.50;;;;;;5035198;28;20443;-76
2022/06/03 11:21:24;;;;;;;4.68;2.90;;;31.80;62.50;;;;;;5034619;28;20038;-76
2022/06/03 11:23:51;;;;;;;3.40;2.88;;;31.30;63.70;;;;;;5034613;28;20041;-74
2022/06/03 11:26:17;;;;;;;3.40;2.88;;;30.90;61.90;;;;;;5032049;28;20046;-76
2022/06/03 11:28:53;;;;;;;4.80;2.70;;;30.80;65.60;;;;;;5034371;28;20042;-74
2022/06/03 11:31:29;;;;;;;3.55;2.67;;;30.70;66.10;;;;;;5033096;28;20083;-74
2022/06/03 11:34:14;;;;;;;3.85;2.70;;;30.90;67.10;;;;;;5035120;28;20491;-74
2022/06/03 11:37:05;;;;;;;4.80;2.50;;;30.80;64.00;;;;;;5035080;28;20030;-74
2022/06/03 11:39:46;;;;;;;9.98;3.20;;;30.80;63.70;;;;;;5034624;28;20041;-74
2022/06/03 11:42:19;;;;;;;6.32;3.60;;;30.80;66.40;;;;;;5033753;28;20026;-75
2022/06/03 11:45:10;;;;;;;7.53;3.03;;;30.50;65.30;;;;;;5034491;28;20094;-78
2022/06/03 11:47:51;;;;;;;4.15;2.80;;;30.20;66.00;;;;;;5034871;28;20504;-75
2022/06/03 11:50:20;;;;;;;5.47;2.70;;;30.20;67.10;;;;;;5034687;28;20038;-75
2022/06/03 11:52:48;;;;;;;5.53;2.55;;;30.10;68.60;;;;;;5034420;28;20058;-75
2022/06/03 11:55:14;;;;;;;2.95;2.67;;;30.20;66.70;;;;;;5034206;28;20026;-75
2022/06/03 11:57:50;;;;;;;6.05;2.97;;;30.00;67.20;;;;;;5034109;28;20088;-76
2022/06/03 12:00:20;;;;;;;4.40;2.63;;;29.80;70.00;;;;;;5034066;28;20038;-75
2022/06/03 12:02:53;;;;;;;3.72;2.95;;;29.80;69.60;;;;;;5034338;28;20534;-75
2022/06/03 12:05:24;;;;;;;5.53;2.70;;;29.70;71.50;;;;;;5032656;28;20120;-75
2022/06/03 12:07:57;;;;;;;5.20;2.50;;;29.50;67.00;;;;;;5034427;28;20026;-75
2022/06/03 12:10:29;;;;;;;5.15;2.90;;;29.40;69.70;;;;;;5033183;28;20084;-75
2022/06/03 12:13:28;;;;;;;2.60;2.40;;;29.30;69.50;;;;;;5032837;28;20029;-75
2022/06/03 12:15:53;;;;;;;3.20;2.75;;;29.20;75.90;;;;;;5032600;28;20121;-75
2022/06/03 12:18:31;;;;;;;3.33;2.65;;;29.10;68.40;;;;;;5033669;28;20112;-75
2022/06/03 12:21:07;;;;;;;4.45;2.63;;;29.20;70.70;;;;;;5033707;28;20034;-75
2022/06/03 12:23:38;;;;;;;5.63;2.85;;;29.00;69.60;;;;;;5033786;28;20056;-75
2022/06/03 12:26:16;;;;;;;3.65;2.60;;;29.10;71.00;;;;;;5033997;28;20068;-75
2022/06/03 12:28:47;;;;;;;4.07;2.42;;;29.30;69.60;;;;;;5034017;28;20050;-75
2022/06/03 12:31:19;;;;;;;3.42;2.67;;;29.70;70.70;;;;;;5033867;28;20571;-75
2022/06/03 12:33:52;;;;;;;4.07;2.67;;;30.00;67.90;;;;;;5033183;28;20030;-75
2022/06/03 12:36:40;;;;;;;9.98;3.13;;;30.30;72.00;;;;;;5033960;28;20034;-75
2022/06/03 12:39:18;;;;;;;4.65;2.72;;;30.10;69.70;;;;;;5033676;28;20136;-76
2022/06/03 12:41:46;;;;;;;20.77;4.95;;;30.50;68.50;;;;;;5033793;28;20041;-75
2022/06/03 12:44:42;;;;;;;9.55;2.88;;;31.20;67.10;;;;;;5033471;28;20045;-74
2022/06/03 12:47:29;;;;;;;3.72;2.90;;;32.10;67.20;;;;;;5033223;28;20475;-75
2022/06/03 12:50:06;;;;;;;4.40;2.55;;;33.00;65.10;;;;;;5033683;28;20038;-76
2022/06/03 12:52:35;;;;;;;5.03;2.70;;;33.90;59.70;;;;;;5033157;28;20029;-75
2022/06/03 12:55:23;;;;;;;2.95;2.53;;;33.80;58.90;;;;;;5035329;28;20527;-75
2022/06/03 12:57:59;;;;;;;4.80;2.40;;;33.40;59.10;;;;;;5037062;28;20045;-75
2022/06/03 13:00:34;;;;;;;4.05;2.50;;;33.00;59.50;;;;;;5037009;28;20042;-75
2022/06/03 13:03:26;;;;;;;3.88;2.72;;;32.10;62.00;;;;;;5036476;28;20112;-75
2022/06/03 13:05:54;;;;;;;8.07;3.03;;;31.50;61.20;;;;;;5036213;28;20065;-75
2022/06/03 13:08:28;;;;;;;4.82;2.40;;;31.90;65.60;;;;;;5036920;28;20030;-75
2022/06/03 13:11:06;;;;;;;4.15;2.80;;;31.80;68.00;;;;;;5036355;28;20037;-75
2022/06/03 13:13:34;;;;;;;2.75;2.40;;;32.10;60.80;;;;;;5036418;28;20037;-75
2022/06/03 13:16:22;;;;;;;3.65;2.55;;;32.30;59.70;;;;;;5036700;28;20034;-75
2022/06/03 13:18:53;;;;;;;4.25;2.55;;;32.60;65.70;;;;;;5033792;28;20037;-75
2022/06/03 13:21:26;;;;;;;4.10;2.65;;;33.30;58.30;;;;;;5036170;28;20498;-75
2022/06/03 13:23:51;;;;;;;2.90;2.42;;;33.90;60.70;;;;;;5035992;28;20079;-75
2022/06/03 13:26:20;;;;;;;3.65;2.33;;;34.20;57.80;;;;;;5036630;28;20033;-75
2022/06/03 13:28:50;;;;;;;4.45;2.60;;;34.20;57.20;;;;;;5035952;28;20128;-75
2022/06/03 13:31:19;;;;;;;4.55;2.38;;;34.00;57.90;;;;;;5035954;28;20029;-75
2022/06/03 13:34:00;;;;;;;3.05;2.47;;;33.50;60.70;;;;;;5035950;28;20041;-75
2022/06/03 13:36:33;;;;;;;5.05;2.70;;;32.80;61.30;;;;;;5034742;28;20030;-75
2022/06/03 13:38:59;;;;;;;3.72;2.75;;;32.20;65.00;;;;;;5036002;28;20090;-75
2022/06/03 13:44:41;;;;;;;3.03;2.50;;;31.20;65.30;;;;;;5036281;28;20042;-75
2022/06/03 13:47:30;;;;;;;5.32;2.70;;;31.20;63.60;;;;;;5036564;28;20036;-75
2022/06/03 13:50:17;;;;;;;2.85;2.60;;;31.20;62.90;;;;;;5036060;28;20038;-75
2022/06/03 13:52:45;;;;;;;6.13;2.95;;;31.00;63.10;;;;;;5036294;28;20026;-75
2022/06/03 13:55:24;;;;;;;4.55;2.72;;;30.90;64.00;;;;;;5035705;28;20482;-75
2022/06/03 13:58:02;;;;;;;3.30;2.80;;;30.80;62.70;;;;;;5035431;28;20511;-75
2022/06/03 14:00:54;;;;;;;3.00;2.60;;;30.80;63.20;;;;;;5035622;28;20062;-75
2022/06/03 14:03:32;;;;;;;3.03;2.60;;;31.90;62.10;;;;;;5015792;28;20074;-76
2022/06/03 14:06:17;;;;;;;3.42;3.10;;;33.00;61.00;;;;;;5014250;28;20092;-75
2022/06/03 14:09:14;;;;;;;4.43;2.72;;;34.20;59.60;;;;;;5014447;28;20030;-76
2022/06/03 14:11:47;;;;;;;3.05;2.50;;;35.10;56.60;;;;;;5015545;28;20096;-75
2022/06/03 14:14:20;;;;;;;3.10;2.70;;;35.30;59.60;;;;;;5016044;28;20033;-75
2022/06/03 14:16:58;;;;;;;4.35;2.67;;;36.60;55.30;;;;;;5015009;28;20043;-76
2022/06/03 14:19:32;;;;;;;6.22;3.20;;;36.60;56.10;;;;;;5016838;28;20065;-77
2022/06/03 14:22:03;;;;;;;3.53;2.80;;;35.90;54.30;;;;;;5015727;28;20050;-75
2022/06/03 14:24:37;;;;;;;6.07;3.13;;;35.20;54.70;;;;;;5015985;28;20113;-77
2022/06/03 14:27:24;;;;;;;5.15;2.72;;;34.40;55.80;;;;;;5015674;28;20038;-75
2022/06/03 14:30:06;;;;;;;4.60;3.38;;;33.90;56.30;;;;;;5015697;28;20049;-74
2022/06/03 14:32:35;;;;;;;4.88;2.95;;;33.20;56.60;;;;;;5015275;28;20069;-74
2022/06/03 14:35:20;;;;;;;3.85;3.42;;;32.70;59.40;;;;;;5015222;28;20496;-74
2022/06/03 14:37:55;;;;;;;3.75;3.20;;;32.30;59.80;;;;;;5013826;28;20037;-75
2022/06/03 14:40:31;;;;;;;3.08;2.80;;;32.10;59.60;;;;;;5015788;28;20083;-76
2022/06/03 14:42:59;;;;;;;8.18;3.35;;;31.90;62.90;;;;;;5014615;28;20034;-76
2022/06/03 14:45:28;;;;;;;4.18;2.90;;;31.90;63.20;;;;;;5015872;28;20112;-76
2022/06/03 14:47:59;;;;;;;11.82;3.55;;;32.20;60.20;;;;;;5014926;28;20038;-76
2022/06/03 14:50:38;;;;;;;3.65;2.70;;;32.20;61.50;;;;;;5015073;28;20124;-75
2022/06/03 14:53:16;;;;;;;5.30;3.25;;;31.60;62.20;;;;;;5013851;28;20034;-76
2022/06/03 14:55:45;;;;;;;4.78;3.00;;;31.50;61.70;;;;;;5015458;28;20034;-75
2022/06/03 14:58:16;;;;;;;4.15;2.80;;;31.20;64.00;;;;;;5015200;28;20724;-75
2022/06/03 15:00:47;;;;;;;3.63;2.92;;;30.90;64.10;;;;;;5014835;28;20471;-75
2022/06/03 15:03:30;;;;;;;4.70;2.83;;;30.50;64.60;;;;;;5015060;28;20548;-75
2022/06/03 15:05:59;;;;;;;3.78;3.38;;;30.30;63.10;;;;;;5015336;28;20168;-75
2022/06/03 15:08:37;;;;;;;4.75;3.22;;;29.90;66.40;;;;;;5015469;28;20027;-75
2022/06/03 15:11:23;;;;;;;3.47;3.10;;;29.80;66.40;;;;;;5014197;28;20038;-76
2022/06/03 15:13:50;;;;;;;6.05;3.00;;;29.90;65.30;;;;;;5015037;28;20085;-75
2022/06/03 15:16:16;;;;;;;4.90;3.17;;;30.40;64.60;;;;;;5013247;28;20392;-74
2022/06/03 15:18:44;;;;;;;4.80;3.28;;;30.60;63.20;;;;;;5020087;28;20534;-75
2022/06/03 15:21:16;;;;;;;4.72;2.80;;;30.70;65.30;;;;;;5027573;28;20411;-75
2022/06/03 15:23:43;;;;;;;3.38;2.97;;;30.70;64.30;;;;;;5029646;28;20030;-76
2022/06/03 15:26:13;;;;;;;3.15;2.90;;;30.90;63.10;;;;;;5034678;28;20053;-75
2022/06/03 15:28:39;;;;;;;5.38;3.13;;;31.10;65.60;;;;;;5025301;28;20500;-75
2022/06/03 15:31:15;;;;;;;4.10;3.20;;;31.80;61.60;;;;;;5032181;28;20034;-73
2022/06/03 15:33:49;;;;;;;3.67;2.95;;;31.80;60.00;;;;;;5028945;28;20030;-74
2022/06/03 15:36:22;;;;;;;5.90;4.00;;;32.20;61.40;;;;;;5035592;28;20112;-74
2022/06/03 15:38:53;;;;;;;4.07;3.33;;;32.20;60.10;;;;;;5035684;28;20088;-74
2022/06/03 15:41:22;;;;;;;4.90;2.90;;;32.00;60.00;;;;;;5035492;28;20128;-74
2022/06/03 15:43:50;;;;;;;7.43;3.13;;;31.20;61.80;;;;;;5035124;28;20065;-75
2022/06/03 15:46:52;;;;;;;4.57;2.80;;;30.70;64.40;;;;;;5035871;28;20064;-75
2022/06/03 15:49:18;;;;;;;4.43;2.78;;;31.70;62.80;;;;;;5018489;28;20512;-74
2022/06/03 15:51:47;;;;;;;4.78;2.85;;;33.80;59.30;;;;;;5036365;28;20069;-74
2022/06/03 15:54:30;;;;;;;5.82;2.75;;;34.60;56.90;;;;;;5036777;28;20783;-77
2022/06/03 15:56:58;;;;;;;4.28;3.10;;;36.00;54.70;;;;;;5027674;28;20041;-75
2022/06/03 15:59:36;;;;;;;5.00;3.30;;;36.50;53.20;;;;;;5016018;28;20035;-75
2022/06/03 16:02:22;;;;;;;6.13;3.50;;;37.70;50.70;;;;;;5019316;28;20040;-80
2022/06/03 16:05:13;;;;;;;5.82;2.85;;;37.80;49.90;;;;;;5028594;28;20041;-76
2022/06/03 16:07:52;;;;;;;6.38;3.25;;;35.90;52.10;;;;;;5031762;28;20030;-75
2022/06/03 16:10:31;;;;;;;5.53;3.28;;;34.80;53.50;;;;;;5035218;28;20046;-76
2022/06/03 16:13:17;;;;;;;5.70;3.17;;;36.20;51.80;;;;;;5025144;28;20030;-78
2022/06/03 16:15:52;;;;;;;7.03;3.28;;;36.40;51.90;;;;;;5035037;28;20030;-76
2022/06/03 16:18:36;;;;;;;4.07;3.05;;;36.60;50.70;;;;;;5037505;28;20026;-75
2022/06/03 16:21:20;;;;;;;5.13;3.13;;;34.80;53.20;;;;;;5032990;28;20037;-75
2022/06/03 16:23:58;;;;;;;4.82;3.00;;;35.00;54.40;;;;;;5034477;28;20890;-76
2022/06/03 16:26:39;;;;;;;6.15;3.45;;;35.00;53.60;;;;;;5028967;28;20070;-76
2022/06/03 16:29:30;;;;;;;4.05;3.20;;;34.80;53.70;;;;;;5037087;28;20041;-74
2022/06/03 16:32:34;;;;;;;4.88;3.10;;;33.00;57.00;;;;;;5037285;28;20034;-74
2022/06/03 16:35:26;;;;;;;5.70;2.97;;;31.60;60.00;;;;;;5017620;28;20034;-75
2022/06/03 16:38:10;;;;;;;4.85;3.17;;;30.80;61.80;;;;;;5017802;28;20026;-74
2022/06/03 16:40:44;;;;;;;5.88;4.03;;;30.10;63.70;;;;;;5019735;28;20890;-75
2022/06/03 16:43:25;;;;;;;3.67;3.13;;;29.20;67.30;;;;;;5036913;28;20057;-73
2022/06/03 16:46:06;;;;;;;4.78;3.40;;;28.60;69.20;;;;;;5036992;28;20033;-74
2022/06/03 16:48:53;;;;;;;4.30;3.30;;;28.30;69.70;;;;;;5037340;28;20073;-74
2022/06/03 16:51:21;;;;;;;5.05;3.45;;;27.90;70.60;;;;;;5037349;28;20044;-74
2022/06/03 16:53:54;;;;;;;5.20;3.80;;;27.80;71.50;;;;;;5036781;28;20030;-73
2022/06/03 16:56:29;;;;;;;6.55;3.60;;;27.30;73.60;;;;;;5036892;28;20041;-74
2022/06/03 16:58:57;;;;;;;4.40;3.72;;;27.00;74.20;;;;;;5037138;28;20034;-74
2022/06/03 17:01:23;;;;;;;7.80;5.07;;;26.70;75.80;;;;;;5031769;28;20043;-75
2022/06/03 17:03:49;;;;;;;6.63;3.83;;;26.60;76.20;;;;;;5024256;28;20030;-74
2022/06/03 17:06:15;;;;;;;4.53;3.42;;;26.50;77.00;;;;;;5032756;28;20096;-74
2022/06/03 17:08:47;;;;;;;6.15;3.70;;;26.20;77.20;;;;;;5036214;28;20089;-74
2022/06/03 17:11:30;;;;;;;4.35;3.95;;;26.00;78.40;;;;;;5035066;28;20474;-74
2022/06/03 17:14:00;;;;;;;4.90;3.88;;;25.70;80.10;;;;;;5036325;28;20038;-74
2022/06/03 17:16:32;;;;;;;3.95;3.53;;;25.40;80.20;;;;;;5035950;28;20036;-74
2022/06/03 17:18:59;;;;;;;5.38;4.20;;;25.30;81.30;;;;;;5034961;28;20034;-74
2022/06/03 17:22:01;;;;;;;5.07;4.07;;;25.10;82.10;;;;;;5034937;28;20112;-75
2022/06/03 17:24:54;;;;;;;4.43;4.00;;;24.90;83.00;;;;;;5032592;28;20034;-75
2022/06/03 17:27:27;;;;;;;5.60;4.22;;;24.70;83.50;;;;;;5036761;28;20038;-76
2022/06/03 17:30:05;;;;;;;6.68;4.32;;;24.60;85.20;;;;;;5037230;28;20081;-75
2022/06/03 17:32:46;;;;;;;6.32;4.63;;;24.40;85.20;;;;;;5035873;28;20033;-74
2022/06/03 17:35:36;;;;;;;6.68;4.30;;;24.30;86.00;;;;;;5037830;28;20038;-75
2022/06/03 17:38:11;;;;;;;8.48;4.70;;;24.30;85.90;;;;;;5035660;28;20492;-74
2022/06/03 17:40:57;;;;;;;6.35;3.78;;;24.30;86.00;;;;;;5032070;28;20487;-75
2022/06/03 17:44:00;;;;;;;4.55;4.10;;;24.30;86.40;;;;;;5028421;28;20035;-75
2022/06/03 17:46:37;;;;;;;5.50;4.28;;;24.30;88.10;;;;;;5025654;28;20053;-73
2022/06/03 17:49:22;;;;;;;5.90;4.70;;;24.30;88.80;;;;;;5026801;28;20038;-73
2022/06/03 17:55:19;;;;;;;5.78;3.72;;;24.30;86.90;;;;;;5021752;28;20042;-77
2022/06/03 17:57:48;;;;;;;4.13;3.78;;;24.20;87.80;;;;;;5029942;28;20035;-72
2022/06/03 18:00:16;;;;;;;3.60;3.30;;;24.10;88.60;;;;;;5018234;28;20038;-73
2022/06/03 18:03:01;;;;;;;4.63;3.80;;;23.80;89.60;;;;;;5034548;28;20030;-72
2022/06/03 18:05:39;;;;;;;3.97;3.50;;;23.70;89.50;;;;;;5035579;28;20034;-72
2022/06/03 18:08:28;;;;;;;5.95;3.50;;;23.60;89.20;;;;;;5036541;28;20139;-73